Time;durP1;ratioP1;P1;durP2;ratioP2;P2;SDS_P1;SDS_P2;PMS_P1;PMS_P2;Temp;Humidity;BMP_temperature;BMP_pressure;BME280_temperature;BME280_humidity;BME280_pressure;Samples;Min_cycle;Max_cycle;Signal;HPM_P1;HPM_P2
2022/09/10 00:00:39;;;;;;;68.60;11.33;;;17.20;99.90;;;;;;5006668;28;20454;-84
2022/09/10 00:03:05;;;;;;;68.80;13.63;;;17.20;99.90;;;;;;5004545;28;20466;-84
2022/09/10 00:05:46;;;;;;;67.30;14.07;;;17.20;99.90;;;;;;5006405;28;20434;-84
2022/09/10 00:08:13;;;;;;;69.20;11.30;;;17.10;99.90;;;;;;5007044;28;20413;-85
2022/09/10 00:10:44;;;;;;;67.73;11.70;;;17.10;99.90;;;;;;5006799;28;20410;-84
2022/09/10 00:13:11;;;;;;;67.20;11.43;;;17.10;99.90;;;;;;5005868;28;20413;-84
2022/09/10 00:15:45;;;;;;;67.20;11.63;;;17.00;99.90;;;;;;5007046;28;20413;-84
2022/09/10 00:18:14;;;;;;;70.20;12.37;;;17.00;99.90;;;;;;5006310;28;20485;-85
2022/09/10 00:20:49;;;;;;;67.37;12.80;;;17.00;99.90;;;;;;5006227;28;20445;-84
2022/09/10 00:23:17;;;;;;;72.00;17.07;;;17.10;99.90;;;;;;5006993;28;20389;-84
2022/09/10 00:25:48;;;;;;;69.27;15.03;;;17.10;99.90;;;;;;5007446;28;20422;-84
2022/09/10 00:28:15;;;;;;;72.37;15.67;;;17.10;99.90;;;;;;5006374;28;20537;-84
2022/09/10 00:30:46;;;;;;;67.27;14.60;;;17.10;99.90;;;;;;5005373;28;20418;-84
2022/09/10 00:33:13;;;;;;;68.50;16.40;;;17.10;99.90;;;;;;5006595;28;20484;-84
2022/09/10 00:35:39;;;;;;;77.50;18.87;;;17.10;99.90;;;;;;5006345;28;20512;-84
2022/09/10 00:38:06;;;;;;;68.40;15.30;;;17.10;99.90;;;;;;5006942;28;20476;-84
2022/09/10 00:40:32;;;;;;;70.40;17.87;;;17.10;99.90;;;;;;5006721;28;20933;-85
2022/09/10 00:42:58;;;;;;;70.77;17.10;;;17.10;99.90;;;;;;5006271;28;20416;-84
2022/09/10 00:45:28;;;;;;;70.50;16.17;;;17.10;99.90;;;;;;5005767;28;20766;-85
2022/09/10 00:48:10;;;;;;;68.63;13.33;;;17.10;99.90;;;;;;5006750;28;20852;-84
2022/09/10 00:50:39;;;;;;;68.00;16.13;;;17.10;99.90;;;;;;5003621;28;20402;-85
2022/09/10 00:53:09;;;;;;;69.80;14.30;;;17.00;99.90;;;;;;5006361;28;20410;-84
2022/09/10 00:55:38;;;;;;;68.00;13.80;;;17.10;99.90;;;;;;5005544;28;20409;-85
2022/09/10 00:58:07;;;;;;;73.63;14.60;;;17.00;99.90;;;;;;5004277;28;20418;-85
2022/09/10 01:00:33;;;;;;;70.50;13.50;;;16.90;99.90;;;;;;5005550;28;20445;-84
2022/09/10 01:03:00;;;;;;;69.60;15.17;;;17.00;99.90;;;;;;5005020;28;20441;-85
2022/09/10 01:05:27;;;;;;;66.70;12.03;;;17.00;99.90;;;;;;5005960;28;20413;-84
2022/09/10 01:07:52;;;;;;;67.70;14.30;;;17.00;99.90;;;;;;5005521;28;20422;-85
2022/09/10 01:10:27;;;;;;;68.20;11.10;;;17.10;99.90;;;;;;5005414;28;20786;-84
2022/09/10 01:13:32;;;;;;;67.47;13.27;;;17.10;99.90;;;;;;5003306;28;20166;-84
2022/09/10 01:16:17;;;;;;;67.80;12.73;;;17.10;99.90;;;;;;4980865;28;20409;-84
2022/09/10 01:18:49;;;;;;;67.20;13.07;;;17.10;99.90;;;;;;5005605;28;20896;-85
2022/09/10 01:21:45;;;;;;;68.97;12.07;;;17.00;99.90;;;;;;5005402;28;20456;-84
2022/09/10 01:24:20;;;;;;;66.97;12.60;;;17.00;99.90;;;;;;5005776;28;20405;-84
2022/09/10 01:27:16;;;;;;;69.83;11.40;;;17.10;99.90;;;;;;5005163;28;20420;-85
2022/09/10 01:29:53;;;;;;;66.20;10.70;;;17.00;99.90;;;;;;5004144;28;20398;-84
2022/09/10 01:32:36;;;;;;;69.00;12.87;;;17.00;99.90;;;;;;5005644;28;20405;-84
2022/09/10 01:35:17;;;;;;;66.47;11.80;;;16.90;99.90;;;;;;5005281;28;20375;-84
2022/09/10 01:37:59;;;;;;;68.57;13.53;;;16.90;99.90;;;;;;5005905;28;20456;-84
2022/09/10 01:40:29;;;;;;;69.80;15.47;;;16.90;99.90;;;;;;5006139;28;20458;-84
2022/09/10 01:43:04;;;;;;;68.23;12.57;;;16.90;99.90;;;;;;5006460;28;20414;-84
2022/09/10 01:45:36;;;;;;;70.53;13.10;;;16.90;99.90;;;;;;5006699;28;20386;-84
2022/09/10 01:48:08;;;;;;;67.37;13.20;;;16.90;99.90;;;;;;5005951;28;20418;-84
2022/09/10 01:50:40;;;;;;;66.47;11.37;;;16.90;99.90;;;;;;5005327;28;20406;-84
2022/09/10 01:53:27;;;;;;;66.33;12.50;;;17.00;99.90;;;;;;5004845;28;20414;-84
2022/09/10 01:56:34;;;;;;;68.00;12.13;;;17.00;99.90;;;;;;5004001;28;20428;-84
2022/09/10 01:59:13;;;;;;;67.43;13.70;;;16.90;99.90;;;;;;5006727;28;20401;-84
2022/09/10 02:01:48;;;;;;;70.40;13.67;;;16.90;99.90;;;;;;5006461;28;20488;-84
2022/09/10 02:04:16;;;;;;;67.67;15.33;;;16.90;99.90;;;;;;5004852;28;20420;-84
2022/09/10 02:06:44;;;;;;;66.50;10.63;;;16.90;99.90;;;;;;5006680;28;20426;-84
2022/09/10 02:09:12;;;;;;;69.33;12.27;;;16.90;99.90;;;;;;5005470;28;20425;-84
2022/09/10 02:11:52;;;;;;;66.97;12.40;;;17.00;99.90;;;;;;5009246;28;20416;-84
2022/09/10 02:14:20;;;;;;;66.07;12.03;;;16.90;99.90;;;;;;5009833;28;20386;-84
2022/09/10 02:16:57;;;;;;;68.50;14.43;;;16.80;99.90;;;;;;5009421;28;20432;-84
2022/09/10 02:19:24;;;;;;;66.30;12.30;;;16.90;99.90;;;;;;5008286;28;20417;-84
2022/09/10 02:21:51;;;;;;;70.07;14.70;;;16.90;99.90;;;;;;5009740;28;20456;-84
2022/09/10 02:24:16;;;;;;;67.30;13.97;;;16.90;99.90;;;;;;5009740;28;20417;-84
2022/09/10 02:26:43;;;;;;;70.60;18.20;;;16.90;99.90;;;;;;5010073;28;20406;-84
2022/09/10 02:29:12;;;;;;;69.60;13.93;;;16.90;99.90;;;;;;5010261;28;20167;-84
2022/09/10 02:31:38;;;;;;;68.73;14.80;;;16.90;99.90;;;;;;5009870;28;20830;-84
2022/09/10 02:34:05;;;;;;;70.13;18.50;;;16.90;99.90;;;;;;5010047;28;20829;-84
2022/09/10 02:36:31;;;;;;;66.73;12.60;;;16.90;99.90;;;;;;5008104;28;20414;-84
2022/09/10 02:38:58;;;;;;;67.67;14.77;;;17.00;99.90;;;;;;5009824;28;20405;-84
2022/09/10 02:41:25;;;;;;;67.77;14.87;;;17.00;99.90;;;;;;5010017;28;20436;-84
2022/09/10 02:43:53;;;;;;;67.77;14.80;;;17.00;99.90;;;;;;4992176;28;20428;-84
2022/09/10 02:46:19;;;;;;;69.43;20.33;;;17.00;99.90;;;;;;5009266;28;21017;-84
2022/09/10 02:48:45;;;;;;;68.77;19.07;;;16.90;99.90;;;;;;5008388;28;20417;-84
2022/09/10 02:51:11;;;;;;;68.60;17.57;;;16.90;99.90;;;;;;5009816;28;20425;-84
2022/09/10 02:53:37;;;;;;;71.47;20.67;;;16.90;99.90;;;;;;5009990;28;20249;-84
2022/09/10 02:56:03;;;;;;;68.57;16.53;;;16.90;99.90;;;;;;5008917;28;20432;-84
2022/09/10 02:58:30;;;;;;;70.03;21.57;;;16.90;99.90;;;;;;5008632;28;20451;-84
2022/09/10 03:01:05;;;;;;;69.60;18.53;;;16.90;99.90;;;;;;5008834;28;20511;-84
2022/09/10 03:03:32;;;;;;;69.27;18.40;;;16.90;99.90;;;;;;5009309;28;20386;-84
2022/09/10 03:05:57;;;;;;;71.37;20.97;;;16.90;99.90;;;;;;5007708;28;20496;-84
2022/09/10 03:08:23;;;;;;;70.37;22.27;;;16.80;99.90;;;;;;5009189;28;20442;-84
2022/09/10 03:10:49;;;;;;;69.80;21.37;;;16.70;99.90;;;;;;5009445;28;20233;-84
2022/09/10 03:13:14;;;;;;;70.00;21.37;;;16.70;99.90;;;;;;5010128;28;20247;-84
2022/09/10 03:15:42;;;;;;;71.93;21.87;;;16.70;99.90;;;;;;5009546;28;20203;-84
2022/09/10 03:18:08;;;;;;;73.63;23.67;;;16.80;99.90;;;;;;5009302;28;20189;-84
2022/09/10 03:20:35;;;;;;;71.57;23.47;;;16.80;99.90;;;;;;5009663;28;20458;-84
2022/09/10 03:23:02;;;;;;;71.40;22.97;;;16.80;99.90;;;;;;5009024;28;20468;-84
2022/09/10 03:25:28;;;;;;;71.87;24.53;;;16.90;99.90;;;;;;5009773;28;20416;-84
2022/09/10 03:27:54;;;;;;;72.23;23.37;;;16.90;99.90;;;;;;5009149;28;20434;-84
2022/09/10 03:30:20;;;;;;;71.57;21.23;;;16.90;99.90;;;;;;5007501;28;20422;-84
2022/09/10 03:32:46;;;;;;;71.40;21.23;;;16.90;99.90;;;;;;5007536;28;20586;-84
2022/09/10 03:35:12;;;;;;;74.20;26.27;;;16.90;99.90;;;;;;5008028;28;20409;-84
2022/09/10 03:37:38;;;;;;;72.60;24.77;;;16.90;99.90;;;;;;5009206;28;20430;-84
2022/09/10 03:40:06;;;;;;;71.67;20.90;;;16.90;99.90;;;;;;5008529;28;20493;-84
2022/09/10 03:42:32;;;;;;;75.17;24.67;;;16.90;99.90;;;;;;5008556;28;20402;-84
2022/09/10 03:44:58;;;;;;;70.77;23.93;;;16.90;99.90;;;;;;5008886;28;20413;-84
2022/09/10 03:47:24;;;;;;;72.97;27.03;;;16.80;99.90;;;;;;5008206;28;20921;-84
2022/09/10 03:49:49;;;;;;;76.60;27.40;;;16.90;99.90;;;;;;5009097;28;20217;-84
2022/09/10 03:52:16;;;;;;;74.60;29.43;;;16.80;99.90;;;;;;5008051;28;20402;-84
2022/09/10 03:54:42;;;;;;;71.03;25.70;;;16.80;99.90;;;;;;5008273;28;20245;-84
2022/09/10 03:57:07;;;;;;;70.83;25.47;;;16.80;99.90;;;;;;5007833;28;20480;-84
2022/09/10 03:59:39;;;;;;;72.17;28.33;;;16.80;99.90;;;;;;5008663;28;20159;-84
2022/09/10 04:02:06;;;;;;;72.30;28.43;;;16.80;99.90;;;;;;5007815;28;20190;-84
2022/09/10 04:04:32;;;;;;;72.27;28.13;;;16.80;99.90;;;;;;5008150;28;20905;-84
2022/09/10 04:06:58;;;;;;;72.90;30.37;;;16.80;99.90;;;;;;5007768;28;21072;-84
2022/09/10 04:09:23;;;;;;;73.07;29.03;;;16.80;99.90;;;;;;5008333;28;20398;-84
2022/09/10 04:11:49;;;;;;;71.73;26.43;;;16.80;99.90;;;;;;5008141;28;20171;-84
2022/09/10 04:14:15;;;;;;;73.33;26.77;;;16.70;99.90;;;;;;5007967;28;20171;-84
2022/09/10 04:16:40;;;;;;;72.30;27.87;;;16.80;99.90;;;;;;5007728;28;20210;-84
2022/09/10 04:19:06;;;;;;;73.77;29.27;;;16.80;99.90;;;;;;5008167;28;20163;-84
2022/09/10 04:21:32;;;;;;;73.73;32.23;;;16.80;99.90;;;;;;5007811;28;20190;-84
2022/09/10 04:24:01;;;;;;;73.97;30.73;;;16.80;99.90;;;;;;5007611;28;20429;-84
2022/09/10 04:26:27;;;;;;;74.13;33.97;;;16.70;99.90;;;;;;5007941;28;20155;-83
2022/09/10 04:28:53;;;;;;;72.87;28.17;;;16.80;99.90;;;;;;5007587;28;20955;-84
2022/09/10 04:31:19;;;;;;;75.07;28.77;;;16.80;99.90;;;;;;5007819;28;20171;-84
2022/09/10 04:33:45;;;;;;;72.10;24.17;;;16.90;99.90;;;;;;5005761;28;20225;-84
2022/09/10 04:36:11;;;;;;;75.23;29.03;;;16.80;99.90;;;;;;5006865;28;20410;-84
2022/09/10 04:38:40;;;;;;;74.60;36.07;;;16.80;99.90;;;;;;5007572;28;20440;-84
2022/09/10 04:41:07;;;;;;;76.93;37.73;;;16.80;99.90;;;;;;5109268;22;20475;-83
2022/09/10 04:43:33;;;;;;;74.57;33.10;;;16.80;99.90;;;;;;5044194;28;20495;-82
2022/09/10 04:45:58;;;;;;;74.60;32.70;;;16.80;99.90;;;;;;5043608;28;20396;-82
2022/09/10 04:48:24;;;;;;;78.03;39.30;;;16.80;99.90;;;;;;5043563;28;20474;-82
2022/09/10 04:50:51;;;;;;;73.93;30.20;;;16.80;99.90;;;;;;5045474;28;20240;-83
2022/09/10 04:53:17;;;;;;;76.37;35.77;;;16.80;99.90;;;;;;5045132;28;20401;-81
2022/09/10 04:55:45;;;;;;;76.17;35.10;;;16.80;99.90;;;;;;5045396;28;20400;-83
2022/09/10 04:58:12;;;;;;;76.60;41.03;;;16.70;99.90;;;;;;5045360;28;20499;-82
2022/09/10 05:00:38;;;;;;;76.27;34.50;;;16.60;99.90;;;;;;5044816;28;20843;-83
2022/09/10 05:03:04;;;;;;;78.47;39.77;;;16.70;99.90;;;;;;5027671;28;20435;-83
2022/09/10 05:05:31;;;;;;;77.80;33.80;;;16.60;99.90;;;;;;5045425;28;20399;-83
2022/09/10 05:07:59;;;;;;;77.43;42.03;;;16.70;99.90;;;;;;5045428;28;20408;-82
2022/09/10 05:10:26;;;;;;;77.57;41.40;;;16.60;99.90;;;;;;5044945;28;20791;-83
2022/09/10 05:12:53;;;;;;;76.57;36.77;;;16.60;99.90;;;;;;5027275;28;20489;-83
2022/09/10 05:15:19;;;;;;;75.83;38.90;;;16.60;99.90;;;;;;5025236;28;20440;-83
2022/09/10 05:17:46;;;;;;;78.93;45.77;;;16.50;99.90;;;;;;5025601;28;20474;-83
2022/09/10 05:20:11;;;;;;;85.73;52.17;;;16.60;99.90;;;;;;5024881;28;20451;-81
2022/09/10 05:22:37;;;;;;;77.23;42.03;;;16.70;99.90;;;;;;5041137;28;20401;-82
2022/09/10 05:25:03;;;;;;;75.83;38.47;;;16.70;99.90;;;;;;5041333;28;20396;-82
2022/09/10 05:27:29;;;;;;;82.43;46.77;;;16.70;99.90;;;;;;5041277;28;20188;-82
2022/09/10 05:29:56;;;;;;;79.93;42.93;;;16.70;99.90;;;;;;5042704;28;20400;-81
2022/09/10 05:32:22;;;;;;;75.57;37.83;;;16.60;99.90;;;;;;5041338;28;20480;-82
2022/09/10 05:34:48;;;;;;;78.63;42.67;;;16.70;99.90;;;;;;5041801;28;20891;-82
2022/09/10 05:37:17;;;;;;;77.60;37.53;;;16.70;99.90;;;;;;5023283;28;20433;-81
2022/09/10 05:39:44;;;;;;;77.27;38.13;;;16.80;99.90;;;;;;5042990;28;20560;-82
2022/09/10 05:42:10;;;;;;;76.67;37.43;;;16.80;99.90;;;;;;5025721;28;20451;-81
2022/09/10 05:44:35;;;;;;;76.73;38.60;;;16.70;99.90;;;;;;5041362;28;20407;-82
2022/09/10 05:47:01;;;;;;;77.40;41.10;;;16.80;99.90;;;;;;5045050;28;20184;-82
2022/09/10 05:49:29;;;;;;;75.80;37.53;;;16.80;99.90;;;;;;5027409;28;20161;-82
2022/09/10 05:51:54;;;;;;;77.87;38.07;;;16.80;99.90;;;;;;5027130;28;20173;-81
2022/09/10 05:54:20;;;;;;;76.27;36.00;;;16.80;99.90;;;;;;5028721;28;20491;-81
2022/09/10 05:56:46;;;;;;;78.20;43.50;;;16.90;99.90;;;;;;5046922;28;20189;-81
2022/09/10 05:59:12;;;;;;;76.57;38.83;;;16.90;99.90;;;;;;5045056;28;20824;-82
2022/09/10 06:01:37;;;;;;;78.30;41.73;;;16.90;99.90;;;;;;5047131;28;20193;-82
2022/09/10 06:04:03;;;;;;;75.37;35.43;;;16.90;99.90;;;;;;5046685;28;20217;-82
2022/09/10 06:06:29;;;;;;;76.43;39.00;;;16.90;99.90;;;;;;5026704;28;20162;-82
2022/09/10 06:08:55;;;;;;;75.07;34.40;;;16.90;99.90;;;;;;5046558;28;20162;-82
2022/09/10 06:11:22;;;;;;;77.13;36.30;;;16.90;99.90;;;;;;5028455;28;20984;-81
2022/09/10 06:13:48;;;;;;;82.50;40.57;;;16.90;99.90;;;;;;5047738;28;20776;-83
2022/09/10 06:16:15;;;;;;;74.40;34.77;;;17.00;99.90;;;;;;5028338;28;20419;-82
2022/09/10 06:18:41;;;;;;;78.70;39.60;;;17.00;99.90;;;;;;5046273;28;20434;-82
2022/09/10 06:21:15;;;;;;;75.70;38.80;;;17.00;99.90;;;;;;5045735;28;20447;-82
2022/09/10 06:23:42;;;;;;;73.20;29.57;;;17.00;99.90;;;;;;5046371;28;20403;-82
2022/09/10 06:26:11;;;;;;;74.83;37.20;;;17.00;99.90;;;;;;5046360;28;20397;-83
2022/09/10 06:28:37;;;;;;;73.40;31.07;;;17.10;99.90;;;;;;5044081;28;20426;-82
2022/09/10 06:31:04;;;;;;;77.43;36.80;;;17.10;99.90;;;;;;5046312;28;20900;-81
2022/09/10 06:33:31;;;;;;;77.07;35.57;;;17.10;99.90;;;;;;5046639;28;20188;-82
2022/09/10 06:35:58;;;;;;;75.40;37.57;;;17.10;99.90;;;;;;5046642;28;20404;-82
2022/09/10 06:38:28;;;;;;;74.83;34.43;;;17.10;99.90;;;;;;5043459;28;20424;-82
2022/09/10 06:40:56;;;;;;;73.50;28.07;;;17.20;99.90;;;;;;5028261;28;20546;-82
2022/09/10 06:43:24;;;;;;;72.53;29.60;;;17.20;99.90;;;;;;5046574;28;20404;-82
2022/09/10 06:45:51;;;;;;;71.60;26.90;;;17.20;99.90;;;;;;5046255;28;20807;-82
2022/09/10 06:48:18;;;;;;;74.20;31.70;;;17.20;99.90;;;;;;5028396;28;20487;-81
2022/09/10 06:50:57;;;;;;;73.33;30.87;;;17.30;99.90;;;;;;5044763;28;20431;-81
2022/09/10 06:53:26;;;;;;;72.10;29.23;;;17.30;99.90;;;;;;5044437;28;20392;-82
2022/09/10 06:55:52;;;;;;;71.80;24.27;;;17.30;99.90;;;;;;5043602;28;20454;-82
2022/09/10 06:58:19;;;;;;;72.00;27.57;;;17.30;99.90;;;;;;5026866;28;20515;-82
2022/09/10 07:00:49;;;;;;;72.30;23.77;;;17.40;99.90;;;;;;5046270;28;20472;-82
2022/09/10 07:03:19;;;;;;;71.67;23.40;;;17.40;99.90;;;;;;5025744;28;20441;-82
2022/09/10 07:05:46;;;;;;;70.90;21.30;;;17.40;99.90;;;;;;5044489;28;20753;-82
2022/09/10 07:08:14;;;;;;;74.70;23.20;;;17.50;99.90;;;;;;5028339;28;20428;-82
2022/09/10 07:10:43;;;;;;;71.60;17.63;;;17.50;99.90;;;;;;5028030;28;20408;-82
2022/09/10 07:13:11;;;;;;;70.80;21.60;;;17.50;99.90;;;;;;5044966;28;20431;-81
2022/09/10 07:15:46;;;;;;;70.13;21.13;;;17.60;99.90;;;;;;5046237;28;20457;-83
2022/09/10 07:18:15;;;;;;;69.40;17.23;;;17.70;99.90;;;;;;5029869;28;20424;-83
2022/09/10 07:20:42;;;;;;;69.70;16.90;;;17.80;99.90;;;;;;5029325;28;20506;-84
2022/09/10 07:23:13;;;;;;;67.40;16.03;;;17.90;99.90;;;;;;5045226;28;20454;-83
2022/09/10 07:25:39;;;;;;;69.10;18.20;;;18.10;99.90;;;;;;5028608;28;20405;-83
2022/09/10 07:28:11;;;;;;;68.80;18.20;;;18.00;99.90;;;;;;5047430;28;20424;-83
2022/09/10 07:30:40;;;;;;;67.00;16.00;;;18.00;99.90;;;;;;5047329;28;20388;-83
2022/09/10 07:33:07;;;;;;;69.10;17.53;;;18.10;99.90;;;;;;5047811;28;20415;-82
2022/09/10 07:35:35;;;;;;;68.07;14.73;;;18.10;99.90;;;;;;5029487;28;20411;-83
2022/09/10 07:38:02;;;;;;;68.77;16.53;;;18.00;99.90;;;;;;5047082;28;20570;-83
2022/09/10 07:40:28;;;;;;;69.20;14.40;;;18.00;99.90;;;;;;5046053;28;20531;-83
2022/09/10 07:42:54;;;;;;;67.77;16.33;;;17.90;99.90;;;;;;5030117;28;20411;-83
2022/09/10 07:45:21;;;;;;;68.63;14.97;;;18.00;99.90;;;;;;5047576;28;20157;-83
2022/09/10 07:47:47;;;;;;;70.87;13.57;;;17.90;99.90;;;;;;5049542;28;20435;-82
2022/09/10 07:50:13;;;;;;;68.97;17.03;;;18.00;99.90;;;;;;5050428;28;20466;-83
2022/09/10 07:52:39;;;;;;;72.03;15.67;;;18.10;99.90;;;;;;5050099;28;20420;-83
2022/09/10 07:55:06;;;;;;;73.20;16.90;;;18.30;99.90;;;;;;5049757;28;20408;-84
2022/09/10 07:57:39;;;;;;;68.53;14.20;;;18.40;99.90;;;;;;5050405;28;20432;-84
2022/09/10 08:00:13;;;;;;;68.70;15.87;;;18.40;99.90;;;;;;5049870;28;20380;-83
2022/09/10 08:02:41;;;;;;;71.93;14.83;;;18.40;99.90;;;;;;5048997;28;20377;-83
2022/09/10 08:05:09;;;;;;;68.90;17.50;;;18.50;99.90;;;;;;5031479;28;20476;-83
2022/09/10 08:07:40;;;;;;;68.70;16.13;;;18.50;99.90;;;;;;5029498;28;20448;-83
2022/09/10 08:10:08;;;;;;;67.37;15.20;;;18.50;99.90;;;;;;5031331;28;20752;-83
2022/09/10 08:12:35;;;;;;;70.53;19.03;;;18.40;99.90;;;;;;5031063;28;20803;-83
2022/09/10 08:15:01;;;;;;;74.77;18.87;;;18.40;99.90;;;;;;5030196;28;20887;-83
2022/09/10 08:17:30;;;;;;;67.23;14.00;;;18.50;99.90;;;;;;5047386;28;20446;-83
2022/09/10 08:19:56;;;;;;;70.90;19.03;;;18.40;99.90;;;;;;5030333;28;20776;-83
2022/09/10 08:22:22;;;;;;;72.93;18.37;;;18.40;99.90;;;;;;5047987;28;20464;-83
2022/09/10 08:24:48;;;;;;;68.87;15.67;;;18.30;99.90;;;;;;5047224;28;20420;-82
2022/09/10 08:27:15;;;;;;;73.33;19.20;;;18.40;99.90;;;;;;5046622;28;20420;-83
2022/09/10 08:29:43;;;;;;;68.90;16.43;;;18.40;99.90;;;;;;5046981;28;20173;-83
2022/09/10 08:32:12;;;;;;;68.97;16.63;;;18.30;99.90;;;;;;5028910;28;20408;-83
2022/09/10 08:34:39;;;;;;;67.27;16.07;;;18.30;99.90;;;;;;5049102;28;20400;-84
2022/09/10 08:37:05;;;;;;;68.70;18.30;;;18.40;99.90;;;;;;5046537;28;20416;-84
2022/09/10 08:39:31;;;;;;;72.17;19.10;;;18.50;99.90;;;;;;5046722;28;20412;-84
2022/09/10 08:42:03;;;;;;;69.67;15.17;;;18.60;99.90;;;;;;5030274;28;20447;-84
2022/09/10 08:44:51;;;;;;;68.20;13.70;;;18.60;99.90;;;;;;5031395;28;20157;-84
2022/09/10 08:47:39;;;;;;;71.03;16.50;;;18.70;99.90;;;;;;5047787;28;20419;-84
2022/09/10 08:50:43;;;;;;;69.23;15.63;;;18.80;99.90;;;;;;5048500;28;20408;-83
2022/09/10 08:53:40;;;;;;;71.97;17.13;;;18.80;99.90;;;;;;5045571;28;20384;-83
2022/09/10 08:56:14;;;;;;;68.30;14.43;;;18.90;99.90;;;;;;5043390;28;20388;-83
2022/09/10 08:58:44;;;;;;;68.30;13.23;;;18.80;99.90;;;;;;5023556;28;21021;-82
2022/09/10 09:01:30;;;;;;;73.10;15.13;;;18.70;99.90;;;;;;5039192;28;20497;-82
2022/09/10 09:03:57;;;;;;;76.43;13.97;;;18.90;99.90;;;;;;5036677;28;20465;-81
2022/09/10 09:06:26;;;;;;;69.63;13.30;;;18.90;99.90;;;;;;5018924;28;20472;-82
2022/09/10 09:08:53;;;;;;;71.23;15.97;;;19.10;99.90;;;;;;5037996;28;20384;-82
2022/09/10 09:11:40;;;;;;;71.00;15.27;;;19.10;99.90;;;;;;5038163;28;20403;-83
2022/09/10 09:14:27;;;;;;;69.53;20.63;;;19.20;99.90;;;;;;5021592;28;20400;-83
2022/09/10 09:17:21;;;;;;;70.30;18.53;;;19.30;99.90;;;;;;5022273;28;20442;-82
2022/09/10 09:20:08;;;;;;;69.27;18.33;;;19.40;99.90;;;;;;5007570;28;20442;-82
2022/09/10 09:22:46;;;;;;;71.37;19.87;;;19.40;99.90;;;;;;5044753;28;20388;-83
2022/09/10 09:25:21;;;;;;;70.03;19.13;;;19.30;99.90;;;;;;5043733;28;20383;-83
2022/09/10 09:27:54;;;;;;;70.70;17.50;;;19.20;99.90;;;;;;5026152;28;20497;-83
2022/09/10 09:30:29;;;;;;;71.13;23.33;;;19.20;99.90;;;;;;5025990;28;20423;-83
2022/09/10 09:33:02;;;;;;;75.37;20.93;;;19.20;99.90;;;;;;5044441;28;20376;-84
2022/09/10 09:35:36;;;;;;;70.37;20.73;;;19.10;99.90;;;;;;5024966;28;20392;-82
2022/09/10 09:38:18;;;;;;;71.70;23.40;;;19.20;99.90;;;;;;5025097;28;20420;-82
2022/09/10 09:40:55;;;;;;;73.63;28.10;;;19.10;99.90;;;;;;5025852;28;20487;-83
2022/09/10 09:43:22;;;;;;;69.70;18.90;;;19.10;99.90;;;;;;5027266;28;20419;-83
2022/09/10 09:45:52;;;;;;;74.07;23.23;;;18.90;99.90;;;;;;5045295;28;20423;-83
2022/09/10 09:48:19;;;;;;;69.50;16.17;;;19.00;99.90;;;;;;5026086;28;20950;-83
2022/09/10 09:50:52;;;;;;;68.57;15.40;;;18.90;99.90;;;;;;5040587;28;20408;-83
2022/09/10 09:53:24;;;;;;;68.47;14.30;;;18.70;99.90;;;;;;5040157;28;20384;-84
2022/09/10 09:55:56;;;;;;;71.20;15.40;;;18.80;99.90;;;;;;5023645;28;20422;-84
2022/09/10 09:58:22;;;;;;;73.27;15.50;;;18.70;99.90;;;;;;5043243;28;20427;-83
2022/09/10 10:00:52;;;;;;;70.10;13.80;;;18.70;99.90;;;;;;5024714;28;20482;-84
2022/09/10 10:03:24;;;;;;;71.40;16.00;;;18.80;99.90;;;;;;5043374;28;20419;-84
2022/09/10 10:05:59;;;;;;;71.43;16.07;;;18.70;99.90;;;;;;5026025;28;20393;-84
2022/09/10 10:08:36;;;;;;;70.47;15.97;;;18.70;99.90;;;;;;5043834;28;20444;-84
2022/09/10 10:11:03;;;;;;;72.80;16.23;;;18.70;99.90;;;;;;5043380;28;20455;-84
2022/09/10 10:13:43;;;;;;;71.87;15.80;;;18.70;99.90;;;;;;5042565;28;20772;-83
2022/09/10 10:16:25;;;;;;;68.00;13.80;;;18.70;99.90;;;;;;5045045;28;20384;-84
2022/09/10 10:18:51;;;;;;;71.53;16.60;;;18.70;99.90;;;;;;5045460;28;20428;-83
2022/09/10 10:21:32;;;;;;;68.83;14.07;;;18.70;99.90;;;;;;5044810;28;20963;-83
2022/09/10 10:23:58;;;;;;;68.63;15.90;;;18.80;99.90;;;;;;5040126;28;20400;-84
2022/09/10 10:26:24;;;;;;;71.40;17.70;;;18.90;99.90;;;;;;5024428;28;20476;-83
2022/09/10 10:28:52;;;;;;;72.43;15.77;;;18.90;99.90;;;;;;5041482;28;20505;-84
2022/09/10 10:31:19;;;;;;;72.73;15.27;;;18.80;99.90;;;;;;5042308;28;20146;-85
2022/09/10 10:34:18;;;;;;;70.17;16.23;;;18.80;99.90;;;;;;5044522;28;20519;-84
2022/09/10 10:37:00;;;;;;;70.67;14.80;;;18.80;99.90;;;;;;5036271;28;20404;-84
2022/09/10 10:39:44;;;;;;;74.10;18.37;;;18.90;99.90;;;;;;5111741;22;20432;-83
2022/09/10 10:42:21;;;;;;;70.67;18.83;;;19.00;99.90;;;;;;5031106;28;20493;-81
2022/09/10 10:44:51;;;;;;;71.40;19.90;;;19.10;99.90;;;;;;5030051;28;20922;-80
2022/09/10 10:47:44;;;;;;;73.93;18.80;;;19.00;99.90;;;;;;5014212;28;20457;-81
2022/09/10 10:50:18;;;;;;;70.77;21.47;;;19.00;99.90;;;;;;5030602;28;20412;-81
2022/09/10 10:52:58;;;;;;;69.67;18.90;;;19.00;99.90;;;;;;5013045;28;20413;-81
2022/09/10 10:55:42;;;;;;;71.93;20.67;;;19.10;99.90;;;;;;5030537;28;20420;-81
2022/09/10 10:58:23;;;;;;;71.50;22.13;;;19.20;99.90;;;;;;5013415;28;20500;-81
2022/09/10 11:01:03;;;;;;;66.80;13.13;;;19.20;99.90;;;;;;5013245;28;20453;-82
2022/09/10 11:04:21;;;;;;;66.80;12.07;;;19.30;99.90;;;;;;5031564;28;20378;-82
2022/09/10 11:07:12;;;;;;;67.47;9.83;;;19.20;99.90;;;;;;4998345;28;20472;-81
2022/09/10 11:09:45;;;;;;;69.20;14.80;;;19.10;99.90;;;;;;5031134;28;20472;-82
2022/09/10 11:12:43;;;;;;;68.60;14.43;;;19.10;99.90;;;;;;5030803;28;20392;-82
2022/09/10 11:15:30;;;;;;;71.57;17.87;;;19.10;99.90;;;;;;5031333;28;20480;-82
2022/09/10 11:18:26;;;;;;;68.17;13.50;;;19.00;99.90;;;;;;5030601;28;20424;-82
2022/09/10 11:21:07;;;;;;;66.90;9.40;;;19.00;99.90;;;;;;5024025;28;20458;-82
2022/09/10 11:23:44;;;;;;;69.30;10.47;;;19.00;99.90;;;;;;5030790;28;20412;-82
2022/09/10 11:26:23;;;;;;;69.67;13.50;;;19.00;99.90;;;;;;5029923;28;20378;-82
2022/09/10 11:29:10;;;;;;;68.30;17.33;;;18.80;99.90;;;;;;5029539;28;20427;-82
2022/09/10 11:31:44;;;;;;;72.23;18.13;;;18.80;99.90;;;;;;5030407;28;20385;-81
2022/09/10 11:34:26;;;;;;;69.97;17.53;;;18.60;99.90;;;;;;5029939;28;20369;-81
2022/09/10 11:37:08;;;;;;;69.17;16.77;;;18.60;99.90;;;;;;5029630;28;20516;-82
2022/09/10 11:39:39;;;;;;;69.83;18.07;;;18.50;99.90;;;;;;5011846;28;20460;-81
2022/09/10 11:42:22;;;;;;;70.07;18.20;;;18.50;99.90;;;;;;5011779;28;20479;-81
2022/09/10 11:45:29;;;;;;;71.47;19.93;;;18.50;99.90;;;;;;5028730;28;20465;-81
2022/09/10 11:48:04;;;;;;;73.30;20.83;;;18.60;99.90;;;;;;5028933;28;20436;-81
2022/09/10 11:50:47;;;;;;;68.90;14.90;;;18.70;99.90;;;;;;5029950;28;20385;-81
2022/09/10 11:53:19;;;;;;;71.70;15.37;;;18.80;99.90;;;;;;5028967;28;20401;-81
2022/09/10 11:56:15;;;;;;;69.60;14.03;;;18.90;99.90;;;;;;5029860;28;20397;-81
2022/09/10 11:59:13;;;;;;;76.37;25.50;;;19.00;99.90;;;;;;5030591;28;20425;-81
2022/09/10 12:02:01;;;;;;;79.27;29.77;;;19.00;99.90;;;;;;5029565;28;20452;-81
2022/09/10 12:04:58;;;;;;;78.20;25.90;;;18.90;99.90;;;;;;5030482;28;20381;-82
2022/09/10 12:07:29;;;;;;;72.70;19.00;;;18.70;99.90;;;;;;5029085;28;20424;-81
2022/09/10 12:10:13;;;;;;;74.70;17.20;;;18.80;99.90;;;;;;5028459;28;20465;-82
2022/09/10 12:12:44;;;;;;;75.63;18.00;;;18.90;99.90;;;;;;5029646;28;20417;-81
2022/09/10 12:15:22;;;;;;;72.57;18.10;;;19.00;99.90;;;;;;5029100;28;20424;-81
2022/09/10 12:17:58;;;;;;;71.27;22.33;;;19.00;99.90;;;;;;5028596;28;20479;-82
2022/09/10 12:20:39;;;;;;;69.67;19.03;;;19.00;99.90;;;;;;5029977;28;20470;-82
2022/09/10 12:23:05;;;;;;;71.47;22.10;;;19.00;99.90;;;;;;5029606;28;20433;-81
2022/09/10 12:25:34;;;;;;;72.37;19.33;;;19.00;99.90;;;;;;5029560;28;20417;-82
2022/09/10 12:28:02;;;;;;;72.67;19.80;;;19.10;99.90;;;;;;5029258;28;20425;-82
2022/09/10 12:30:29;;;;;;;74.23;17.37;;;19.20;99.90;;;;;;5028209;28;20421;-83
2022/09/10 12:32:59;;;;;;;70.03;18.13;;;19.40;99.90;;;;;;5028120;28;20435;-82
2022/09/10 12:35:34;;;;;;;72.47;18.50;;;19.60;99.90;;;;;;5028927;28;20795;-81
2022/09/10 12:38:40;;;;;;;72.33;23.30;;;19.90;99.90;;;;;;5029387;28;20432;-82
2022/09/10 12:41:35;;;;;;;79.83;34.47;;;20.20;99.90;;;;;;5029163;28;20882;-81
2022/09/10 12:44:33;;;;;;;70.57;14.00;;;20.40;99.90;;;;;;5027992;28;20401;-82
2022/09/10 12:47:22;;;;;;;67.93;10.80;;;20.40;99.90;;;;;;5029129;28;20423;-81
2022/09/10 12:50:03;;;;;;;69.17;11.47;;;20.30;99.90;;;;;;5028433;28;20643;-81
2022/09/10 12:52:59;;;;;;;70.37;11.90;;;20.20;99.90;;;;;;5029456;28;20428;-82